sensor_id;sensor_type;location;lat;lon;timestamp;pressure;altitude;pressure_sealevel;temperature;humidity
9538;BME280;4807;48.024;11.726;2022-07-17T00:01:27;95736.53;;;13.95;83.84
9538;BME280;4807;48.024;11.726;2022-07-17T00:04:36;95729.94;;;13.81;84.04
9538;BME280;4807;48.024;11.726;2022-07-17T00:07:47;95730.50;;;13.86;84.56
9538;BME280;4807;48.024;11.726;2022-07-17T00:10:58;95729.16;;;13.80;85.47
9538;BME280;4807;48.024;11.726;2022-07-17T00:14:08;95730.47;;;13.74;85.43
9538;BME280;4807;48.024;11.726;2022-07-17T00:17:19;95731.44;;;13.70;85.50
9538;BME280;4807;48.024;11.726;2022-07-17T00:20:30;95731.75;;;13.68;85.83
9538;BME280;4807;48.024;11.726;2022-07-17T00:23:39;95723.50;;;13.61;85.82
9538;BME280;4807;48.024;11.726;2022-07-17T00:26:53;95720.16;;;13.52;86.91
9538;BME280;4807;48.024;11.726;2022-07-17T00:30:01;95725.84;;;13.63;86.78
9538;BME280;4807;48.024;11.726;2022-07-17T00:33:10;95722.84;;;13.52;86.69
9538;BME280;4807;48.024;11.726;2022-07-17T00:36:18;95732.13;;;13.46;86.49
9538;BME280;4807;48.024;11.726;2022-07-17T00:39:27;95730.13;;;13.43;87.00
9538;BME280;4807;48.024;11.726;2022-07-17T00:42:38;95722.91;;;13.43;87.02
9538;BME280;4807;48.024;11.726;2022-07-17T00:45:55;95718.72;;;13.34;87.60
9538;BME280;4807;48.024;11.726;2022-07-17T00:49:06;95712.41;;;13.38;87.06
9538;BME280;4807;48.024;11.726;2022-07-17T00:52:16;95714.75;;;13.40;87.05
9538;BME280;4807;48.024;11.726;2022-07-17T00:55:25;95716.22;;;13.37;86.77
9538;BME280;4807;48.024;11.726;2022-07-17T00:58:52;95718.41;;;13.14;88.24
9538;BME280;4807;48.024;11.726;2022-07-17T01:02:03;95719.03;;;13.11;88.12
9538;BME280;4807;48.024;11.726;2022-07-17T01:05:14;95723.94;;;13.01;89.15
9538;BME280;4807;48.024;11.726;2022-07-17T01:08:27;95720.44;;;13.09;88.16
9538;BME280;4807;48.024;11.726;2022-07-17T01:11:35;95716.56;;;13.06;88.60
9538;BME280;4807;48.024;11.726;2022-07-17T01:14:52;95719.75;;;13.00;88.29
9538;BME280;4807;48.024;11.726;2022-07-17T01:18:05;95712.25;;;12.93;89.54
9538;BME280;4807;48.024;11.726;2022-07-17T01:21:16;95716.94;;;12.96;88.86
9538;BME280;4807;48.024;11.726;2022-07-17T01:24:24;95716.75;;;13.01;89.57
9538;BME280;4807;48.024;11.726;2022-07-17T01:27:32;95716.41;;;12.82;90.52
9538;BME280;4807;48.024;11.726;2022-07-17T01:30:46;95719.25;;;12.77;90.34
9538;BME280;4807;48.024;11.726;2022-07-17T01:34:00;95718.00;;;12.74;91.03
9538;BME280;4807;48.024;11.726;2022-07-17T01:37:18;95716.59;;;12.77;92.05
9538;BME280;4807;48.024;11.726;2022-07-17T01:40:26;95716.19;;;12.66;91.79
9538;BME280;4807;48.024;11.726;2022-07-17T01:43:36;95714.56;;;12.74;91.37
9538;BME280;4807;48.024;11.726;2022-07-17T01:46:45;95727.31;;;12.68;91.20
9538;BME280;4807;48.024;11.726;2022-07-17T01:49:56;95721.22;;;12.21;92.10
9538;BME280;4807;48.024;11.726;2022-07-17T01:53:06;95732.41;;;12.06;94.82
9538;BME280;4807;48.024;11.726;2022-07-17T01:56:19;95733.25;;;11.72;97.12
9538;BME280;4807;48.024;11.726;2022-07-17T01:59:28;95728.41;;;11.48;98.37
9538;BME280;4807;48.024;11.726;2022-07-17T02:02:40;95735.13;;;11.46;99.07
9538;BME280;4807;48.024;11.726;2022-07-17T02:05:48;95738.75;;;11.50;99.84
9538;BME280;4807;48.024;11.726;2022-07-17T02:09:00;95738.25;;;11.48;100.00
9538;BME280;4807;48.024;11.726;2022-07-17T02:12:08;95727.44;;;11.61;99.68
9538;BME280;4807;48.024;11.726;2022-07-17T02:15:19;95733.84;;;11.69;99.60
9538;BME280;4807;48.024;11.726;2022-07-17T02:18:27;95729.66;;;11.77;99.53
9538;BME280;4807;48.024;11.726;2022-07-17T02:21:35;95724.44;;;11.89;99.07
9538;BME280;4807;48.024;11.726;2022-07-17T02:24:45;95719.41;;;11.96;98.32
9538;BME280;4807;48.024;11.726;2022-07-17T02:27:55;95723.97;;;11.95;97.64
9538;BME280;4807;48.024;11.726;2022-07-17T02:31:04;95721.31;;;11.95;98.26
9538;BME280;4807;48.024;11.726;2022-07-17T02:34:12;95717.22;;;11.98;98.08
9538;BME280;4807;48.024;11.726;2022-07-17T02:37:20;95721.78;;;11.97;97.53
9538;BME280;4807;48.024;11.726;2022-07-17T02:40:30;95716.75;;;11.96;98.42
9538;BME280;4807;48.024;11.726;2022-07-17T02:43:38;95718.50;;;12.00;98.40
9538;BME280;4807;48.024;11.726;2022-07-17T02:46:47;95730.41;;;11.94;98.29
9538;BME280;4807;48.024;11.726;2022-07-17T02:49:57;95730.25;;;11.74;98.81
9538;BME280;4807;48.024;11.726;2022-07-17T02:53:10;95732.47;;;11.72;99.55
9538;BME280;4807;48.024;11.726;2022-07-17T02:56:20;95729.00;;;11.71;99.93
9538;BME280;4807;48.024;11.726;2022-07-17T02:59:29;95729.31;;;11.61;100.00
9538;BME280;4807;48.024;11.726;2022-07-17T03:02:37;95724.31;;;11.51;100.00
9538;BME280;4807;48.024;11.726;2022-07-17T03:05:46;95714.03;;;11.49;100.00
9538;BME280;4807;48.024;11.726;2022-07-17T03:08:54;95716.63;;;11.67;100.00
9538;BME280;4807;48.024;11.726;2022-07-17T03:12:05;95724.47;;;11.72;100.00
9538;BME280;4807;48.024;11.726;2022-07-17T03:15:14;95729.50;;;11.64;100.00
9538;BME280;4807;48.024;11.726;2022-07-17T03:18:22;95733.25;;;11.63;100.00
9538;BME280;4807;48.024;11.726;2022-07-17T03:21:30;95729.34;;;11.52;100.00
9538;BME280;4807;48.024;11.726;2022-07-17T03:24:38;95732.78;;;11.53;100.00
9538;BME280;4807;48.024;11.726;2022-07-17T03:27:49;95727.00;;;11.42;100.00
9538;BME280;4807;48.024;11.726;2022-07-17T03:30:57;95724.50;;;11.54;100.00
9538;BME280;4807;48.024;11.726;2022-07-17T03:34:05;95724.97;;;11.56;100.00
9538;BME280;4807;48.024;11.726;2022-07-17T03:37:14;95728.09;;;11.50;100.00
9538;BME280;4807;48.024;11.726;2022-07-17T03:40:23;95726.66;;;11.52;100.00
9538;BME280;4807;48.024;11.726;2022-07-17T03:43:32;95727.75;;;11.43;100.00
9538;BME280;4807;48.024;11.726;2022-07-17T03:46:42;95726.22;;;11.33;100.00
9538;BME280;4807;48.024;11.726;2022-07-17T03:49:50;95731.38;;;11.47;100.00
9538;BME280;4807;48.024;11.726;2022-07-17T03:52:59;95729.31;;;11.35;100.00
9538;BME280;4807;48.024;11.726;2022-07-17T03:56:07;95728.88;;;11.42;100.00
9538;BME280;4807;48.024;11.726;2022-07-17T03:59:17;95721.03;;;11.37;100.00
9538;BME280;4807;48.024;11.726;2022-07-17T04:02:25;95727.94;;;11.55;100.00
9538;BME280;4807;48.024;11.726;2022-07-17T04:05:34;95734.81;;;11.56;100.00
9538;BME280;4807;48.024;11.726;2022-07-17T04:08:42;95723.69;;;11.62;100.00
9538;BME280;4807;48.024;11.726;2022-07-17T04:11:51;95726.06;;;11.64;100.00
9538;BME280;4807;48.024;11.726;2022-07-17T04:15:01;95734.97;;;11.59;100.00
9538;BME280;4807;48.024;11.726;2022-07-17T04:18:09;95733.06;;;11.60;100.00
9538;BME280;4807;48.024;11.726;2022-07-17T04:21:17;95738.88;;;11.62;100.00
9538;BME280;4807;48.024;11.726;2022-07-17T04:24:26;95743.56;;;11.65;100.00
9538;BME280;4807;48.024;11.726;2022-07-17T04:27:34;95743.09;;;11.72;100.00
9538;BME280;4807;48.024;11.726;2022-07-17T04:30:44;95745.00;;;11.80;100.00
9538;BME280;4807;48.024;11.726;2022-07-17T04:33:53;95740.28;;;11.94;100.00
9538;BME280;4807;48.024;11.726;2022-07-17T04:37:03;95746.31;;;12.12;100.00
9538;BME280;4807;48.024;11.726;2022-07-17T04:40:12;95738.31;;;12.20;100.00
9538;BME280;4807;48.024;11.726;2022-07-17T04:43:20;95738.09;;;12.34;98.87
9538;BME280;4807;48.024;11.726;2022-07-17T04:46:30;95738.34;;;12.50;98.42
9538;BME280;4807;48.024;11.726;2022-07-17T04:49:38;95743.81;;;12.53;99.04
9538;BME280;4807;48.024;11.726;2022-07-17T04:52:47;95740.78;;;12.63;98.82
9538;BME280;4807;48.024;11.726;2022-07-17T04:55:55;95738.53;;;12.74;98.43
9538;BME280;4807;48.024;11.726;2022-07-17T04:59:05;95739.44;;;12.78;97.16
9538;BME280;4807;48.024;11.726;2022-07-17T05:02:14;95730.25;;;12.96;96.62
9538;BME280;4807;48.024;11.726;2022-07-17T05:05:23;95741.66;;;13.05;96.17
9538;BME280;4807;48.024;11.726;2022-07-17T05:08:33;95744.41;;;13.17;95.00
9538;BME280;4807;48.024;11.726;2022-07-17T05:11:42;95742.63;;;13.30;94.66
9538;BME280;4807;48.024;11.726;2022-07-17T05:14:51;95737.97;;;13.39;94.88
9538;BME280;4807;48.024;11.726;2022-07-17T05:18:02;95742.63;;;13.51;93.97
9538;BME280;4807;48.024;11.726;2022-07-17T05:21:10;95736.00;;;13.69;92.58
9538;BME280;4807;48.024;11.726;2022-07-17T05:24:19;95738.28;;;13.79;92.91
9538;BME280;4807;48.024;11.726;2022-07-17T05:27:27;95744.09;;;13.93;91.24
9538;BME280;4807;48.024;11.726;2022-07-17T05:30:36;95745.25;;;14.05;90.86
9538;BME280;4807;48.024;11.726;2022-07-17T05:33:45;95734.38;;;14.22;89.50
9538;BME280;4807;48.024;11.726;2022-07-17T05:36:54;95737.19;;;14.38;89.04
9538;BME280;4807;48.024;11.726;2022-07-17T05:40:03;95737.34;;;14.53;87.58
9538;BME280;4807;48.024;11.726;2022-07-17T05:43:11;95748.28;;;14.73;87.12
9538;BME280;4807;48.024;11.726;2022-07-17T05:46:20;95747.38;;;14.93;85.55
9538;BME280;4807;48.024;11.726;2022-07-17T05:49:29;95744.47;;;15.10;86.91
9538;BME280;4807;48.024;11.726;2022-07-17T05:52:38;95744.81;;;15.61;90.61
9538;BME280;4807;48.024;11.726;2022-07-17T05:55:46;95742.25;;;16.08;87.12
9538;BME280;4807;48.024;11.726;2022-07-17T05:58:54;95743.38;;;16.07;86.57
9538;BME280;4807;48.024;11.726;2022-07-17T06:02:03;95748.56;;;16.15;84.92
9538;BME280;4807;48.024;11.726;2022-07-17T06:05:13;95746.19;;;16.57;73.51
9538;BME280;4807;48.024;11.726;2022-07-17T06:08:26;95750.34;;;16.86;72.57
9538;BME280;4807;48.024;11.726;2022-07-17T06:11:35;95748.53;;;17.99;68.68
9538;BME280;4807;48.024;11.726;2022-07-17T06:14:44;95746.03;;;18.74;65.03
9538;BME280;4807;48.024;11.726;2022-07-17T06:17:53;95745.03;;;19.98;62.28
9538;BME280;4807;48.024;11.726;2022-07-17T06:21:03;95742.31;;;21.99;56.51
9538;BME280;4807;48.024;11.726;2022-07-17T06:24:11;95746.94;;;21.23;54.74
9538;BME280;4807;48.024;11.726;2022-07-17T06:27:20;95748.63;;;21.45;56.37
9538;BME280;4807;48.024;11.726;2022-07-17T06:30:30;95752.28;;;21.88;54.07
9538;BME280;4807;48.024;11.726;2022-07-17T06:33:39;95750.97;;;22.97;55.84
9538;BME280;4807;48.024;11.726;2022-07-17T06:36:48;95748.25;;;23.11;49.66
9538;BME280;4807;48.024;11.726;2022-07-17T06:39:57;95747.78;;;21.34;53.11
9538;BME280;4807;48.024;11.726;2022-07-17T06:43:05;95749.41;;;22.68;51.64
9538;BME280;4807;48.024;11.726;2022-07-17T06:46:14;95745.53;;;24.38;50.03
9538;BME280;4807;48.024;11.726;2022-07-17T06:49:22;95747.13;;;24.32;47.67
9538;BME280;4807;48.024;11.726;2022-07-17T06:52:32;95757.47;;;25.06;47.52
9538;BME280;4807;48.024;11.726;2022-07-17T06:55:41;95749.03;;;26.06;46.87
9538;BME280;4807;48.024;11.726;2022-07-17T06:58:49;95749.22;;;25.92;45.57
9538;BME280;4807;48.024;11.726;2022-07-17T07:01:57;95748.16;;;28.58;42.43
9538;BME280;4807;48.024;11.726;2022-07-17T07:05:06;95758.16;;;25.14;45.36
9538;BME280;4807;48.024;11.726;2022-07-17T07:08:16;95761.28;;;24.60;46.21
9538;BME280;4807;48.024;11.726;2022-07-17T07:11:29;95753.47;;;26.27;44.23
9538;BME280;4807;48.024;11.726;2022-07-17T07:14:37;95754.44;;;26.40;44.12
9538;BME280;4807;48.024;11.726;2022-07-17T07:17:46;95751.25;;;28.60;42.45
9538;BME280;4807;48.024;11.726;2022-07-17T07:20:54;95750.63;;;29.66;40.11
9538;BME280;4807;48.024;11.726;2022-07-17T07:24:05;95748.13;;;26.73;43.87
9538;BME280;4807;48.024;11.726;2022-07-17T07:27:13;95750.31;;;25.64;43.49
9538;BME280;4807;48.024;11.726;2022-07-17T07:30:21;95747.50;;;26.62;43.59
9538;BME280;4807;48.024;11.726;2022-07-17T07:33:32;95751.31;;;26.41;43.68
9538;BME280;4807;48.024;11.726;2022-07-17T07:36:41;95747.94;;;28.13;40.94
9538;BME280;4807;48.024;11.726;2022-07-17T07:39:51;95743.81;;;26.49;40.98
9538;BME280;4807;48.024;11.726;2022-07-17T07:42:59;95755.44;;;26.23;42.88
9538;BME280;4807;48.024;11.726;2022-07-17T07:46:07;95751.69;;;27.63;41.97
9538;BME280;4807;48.024;11.726;2022-07-17T07:49:16;95755.75;;;27.95;41.57
9538;BME280;4807;48.024;11.726;2022-07-17T07:52:24;95756.28;;;27.00;39.67
9538;BME280;4807;48.024;11.726;2022-07-17T07:55:34;95760.34;;;28.37;38.19
9538;BME280;4807;48.024;11.726;2022-07-17T07:58:42;95753.94;;;27.88;37.80
9538;BME280;4807;48.024;11.726;2022-07-17T08:01:50;95749.28;;;29.25;37.98
9538;BME280;4807;48.024;11.726;2022-07-17T08:04:59;95748.53;;;30.53;37.54
9538;BME280;4807;48.024;11.726;2022-07-17T08:08:08;95754.22;;;26.54;38.88
9538;BME280;4807;48.024;11.726;2022-07-17T08:11:17;95750.84;;;25.86;40.26
9538;BME280;4807;48.024;11.726;2022-07-17T08:14:26;95759.75;;;25.49;40.10
9538;BME280;4807;48.024;11.726;2022-07-17T08:17:34;95758.78;;;25.32;41.39
9538;BME280;4807;48.024;11.726;2022-07-17T08:20:44;95752.66;;;25.96;39.93
9538;BME280;4807;48.024;11.726;2022-07-17T08:23:52;95761.69;;;25.52;40.13
9538;BME280;4807;48.024;11.726;2022-07-17T08:27:04;95764.56;;;25.34;40.88
9538;BME280;4807;48.024;11.726;2022-07-17T08:30:15;95770.88;;;26.33;39.96
9538;BME280;4807;48.024;11.726;2022-07-17T08:33:24;95760.91;;;28.29;38.85
9538;BME280;4807;48.024;11.726;2022-07-17T08:36:32;95765.69;;;27.65;38.68
9538;BME280;4807;48.024;11.726;2022-07-17T08:39:41;95757.28;;;27.56;38.48
9538;BME280;4807;48.024;11.726;2022-07-17T08:42:58;95765.16;;;27.51;40.49
9538;BME280;4807;48.024;11.726;2022-07-17T08:46:10;95765.59;;;28.48;38.86
9538;BME280;4807;48.024;11.726;2022-07-17T08:49:21;95770.16;;;27.76;38.76
9538;BME280;4807;48.024;11.726;2022-07-17T08:52:30;95766.78;;;28.27;40.31
9538;BME280;4807;48.024;11.726;2022-07-17T08:55:38;95763.78;;;28.77;39.17
9538;BME280;4807;48.024;11.726;2022-07-17T08:58:49;95769.66;;;28.92;40.31
9538;BME280;4807;48.024;11.726;2022-07-17T09:01:59;95771.94;;;29.26;38.05
9538;BME280;4807;48.024;11.726;2022-07-17T09:05:08;95775.84;;;29.57;37.43
9538;BME280;4807;48.024;11.726;2022-07-17T09:08:20;95775.19;;;27.57;41.07
9538;BME280;4807;48.024;11.726;2022-07-17T09:11:29;95774.44;;;27.77;41.59
9538;BME280;4807;48.024;11.726;2022-07-17T09:14:41;95777.59;;;28.50;40.95
9538;BME280;4807;48.024;11.726;2022-07-17T09:17:51;95773.94;;;26.92;40.13
9538;BME280;4807;48.024;11.726;2022-07-17T09:21:00;95772.09;;;27.09;40.77
9538;BME280;4807;48.024;11.726;2022-07-17T09:24:08;95759.63;;;26.57;40.63
9538;BME280;4807;48.024;11.726;2022-07-17T09:27:30;95763.34;;;26.44;42.13
9538;BME280;4807;48.024;11.726;2022-07-17T09:30:43;95770.44;;;27.15;39.48
9538;BME280;4807;48.024;11.726;2022-07-17T09:33:52;95760.00;;;27.33;38.66
9538;BME280;4807;48.024;11.726;2022-07-17T09:37:01;95768.28;;;27.06;39.60
9538;BME280;4807;48.024;11.726;2022-07-17T09:40:12;95760.78;;;27.10;42.18
9538;BME280;4807;48.024;11.726;2022-07-17T09:43:46;95756.16;;;26.57;40.17
9538;BME280;4807;48.024;11.726;2022-07-17T09:46:57;95769.75;;;26.30;40.97
9538;BME280;4807;48.024;11.726;2022-07-17T09:50:07;95773.13;;;25.73;41.61
9538;BME280;4807;48.024;11.726;2022-07-17T09:53:17;95773.41;;;25.86;43.43
9538;BME280;4807;48.024;11.726;2022-07-17T09:56:27;95779.25;;;25.85;42.68
9538;BME280;4807;48.024;11.726;2022-07-17T09:59:38;95774.66;;;26.42;43.87
9538;BME280;4807;48.024;11.726;2022-07-17T10:02:49;95770.81;;;25.72;42.47
9538;BME280;4807;48.024;11.726;2022-07-17T10:05:59;95770.72;;;25.82;41.51
9538;BME280;4807;48.024;11.726;2022-07-17T10:09:08;95757.28;;;26.59;43.33
9538;BME280;4807;48.024;11.726;2022-07-17T10:12:17;95752.31;;;27.05;40.87
9538;BME280;4807;48.024;11.726;2022-07-17T10:15:27;95752.72;;;27.26;41.58
9538;BME280;4807;48.024;11.726;2022-07-17T10:18:40;95758.81;;;27.57;41.73
9538;BME280;4807;48.024;11.726;2022-07-17T10:21:56;95766.69;;;26.82;39.83
9538;BME280;4807;48.024;11.726;2022-07-17T10:25:05;95770.22;;;27.06;41.16
9538;BME280;4807;48.024;11.726;2022-07-17T10:28:14;95763.66;;;26.49;40.40
9538;BME280;4807;48.024;11.726;2022-07-17T10:31:26;95763.59;;;26.26;40.40
9538;BME280;4807;48.024;11.726;2022-07-17T10:34:45;95763.91;;;26.58;40.69
9538;BME280;4807;48.024;11.726;2022-07-17T10:37:58;95755.97;;;26.94;41.59
9538;BME280;4807;48.024;11.726;2022-07-17T10:41:20;95753.06;;;26.82;40.57
9538;BME280;4807;48.024;11.726;2022-07-17T10:44:31;95762.66;;;26.63;40.97
9538;BME280;4807;48.024;11.726;2022-07-17T10:47:50;95762.69;;;26.86;41.28
9538;BME280;4807;48.024;11.726;2022-07-17T10:50:59;95762.91;;;27.22;41.93
9538;BME280;4807;48.024;11.726;2022-07-17T10:54:08;95761.59;;;26.57;41.27
9538;BME280;4807;48.024;11.726;2022-07-17T10:57:16;95763.72;;;26.46;40.58
9538;BME280;4807;48.024;11.726;2022-07-17T11:00:25;95754.91;;;26.35;41.27
9538;BME280;4807;48.024;11.726;2022-07-17T11:03:39;95752.25;;;26.58;41.91
9538;BME280;4807;48.024;11.726;2022-07-17T11:06:50;95755.63;;;27.16;41.74
9538;BME280;4807;48.024;11.726;2022-07-17T11:09:59;95753.81;;;27.52;40.41
9538;BME280;4807;48.024;11.726;2022-07-17T11:13:11;95745.69;;;27.49;40.31
9538;BME280;4807;48.024;11.726;2022-07-17T11:16:28;95731.47;;;27.61;41.97
9538;BME280;4807;48.024;11.726;2022-07-17T11:19:39;95741.31;;;27.55;40.84
9538;BME280;4807;48.024;11.726;2022-07-17T11:22:57;95734.78;;;27.29;38.96
9538;BME280;4807;48.024;11.726;2022-07-17T11:26:07;95733.63;;;27.26;42.17
9538;BME280;4807;48.024;11.726;2022-07-17T11:29:16;95730.50;;;27.28;40.33
9538;BME280;4807;48.024;11.726;2022-07-17T11:32:32;95727.09;;;26.74;41.99
9538;BME280;4807;48.024;11.726;2022-07-17T11:35:46;95733.41;;;26.94;40.97
9538;BME280;4807;48.024;11.726;2022-07-17T11:38:59;95723.94;;;27.02;40.33
9538;BME280;4807;48.024;11.726;2022-07-17T11:42:09;95719.75;;;26.98;40.27
9538;BME280;4807;48.024;11.726;2022-07-17T11:45:20;95716.56;;;26.76;40.78
9538;BME280;4807;48.024;11.726;2022-07-17T11:48:29;95717.34;;;26.49;41.07
9538;BME280;4807;48.024;11.726;2022-07-17T11:51:43;95713.97;;;26.69;41.69
9538;BME280;4807;48.024;11.726;2022-07-17T11:54:55;95699.38;;;26.79;40.95
9538;BME280;4807;48.024;11.726;2022-07-17T11:58:05;95700.53;;;27.05;42.14
9538;BME280;4807;48.024;11.726;2022-07-17T12:01:15;95699.13;;;26.96;41.66
9538;BME280;4807;48.024;11.726;2022-07-17T12:04:24;95700.63;;;27.21;43.02
9538;BME280;4807;48.024;11.726;2022-07-17T12:07:43;95701.19;;;27.32;42.49
9538;BME280;4807;48.024;11.726;2022-07-17T12:11:06;95703.94;;;27.32;40.43
9538;BME280;4807;48.024;11.726;2022-07-17T12:14:15;95697.50;;;26.76;40.49
9538;BME280;4807;48.024;11.726;2022-07-17T12:17:36;95701.00;;;26.76;41.56
9538;BME280;4807;48.024;11.726;2022-07-17T12:20:49;95698.84;;;26.64;41.16
9538;BME280;4807;48.024;11.726;2022-07-17T12:24:02;95695.34;;;26.64;40.78
9538;BME280;4807;48.024;11.726;2022-07-17T12:27:15;95694.34;;;26.77;40.90
9538;BME280;4807;48.024;11.726;2022-07-17T12:30:24;95701.00;;;27.00;41.26
9538;BME280;4807;48.024;11.726;2022-07-17T12:33:32;95688.91;;;27.01;40.58
9538;BME280;4807;48.024;11.726;2022-07-17T12:36:40;95692.38;;;26.78;41.22
9538;BME280;4807;48.024;11.726;2022-07-17T12:39:49;95687.25;;;26.60;41.49
9538;BME280;4807;48.024;11.726;2022-07-17T12:42:59;95691.50;;;26.61;41.79
9538;BME280;4807;48.024;11.726;2022-07-17T12:46:08;95687.47;;;26.69;41.08
9538;BME280;4807;48.024;11.726;2022-07-17T12:49:23;95694.34;;;26.77;40.35
9538;BME280;4807;48.024;11.726;2022-07-17T12:52:32;95681.31;;;26.88;41.77
9538;BME280;4807;48.024;11.726;2022-07-17T12:55:41;95685.78;;;27.22;42.57
9538;BME280;4807;48.024;11.726;2022-07-17T12:58:51;95682.06;;;27.35;41.21
9538;BME280;4807;48.024;11.726;2022-07-17T13:02:11;95690.25;;;27.35;39.91
9538;BME280;4807;48.024;11.726;2022-07-17T13:05:23;95680.47;;;27.15;41.76
9538;BME280;4807;48.024;11.726;2022-07-17T13:08:35;95683.28;;;27.11;40.89
9538;BME280;4807;48.024;11.726;2022-07-17T13:11:48;95685.69;;;27.29;41.07
9538;BME280;4807;48.024;11.726;2022-07-17T13:15:02;95675.69;;;27.42;39.49
9538;BME280;4807;48.024;11.726;2022-07-17T13:18:11;95682.09;;;27.12;39.19
9538;BME280;4807;48.024;11.726;2022-07-17T13:21:19;95676.34;;;27.07;40.52
9538;BME280;4807;48.024;11.726;2022-07-17T13:24:28;95678.38;;;27.22;40.22
9538;BME280;4807;48.024;11.726;2022-07-17T13:27:36;95671.63;;;27.50;40.14
9538;BME280;4807;48.024;11.726;2022-07-17T13:30:46;95667.44;;;27.46;40.13
9538;BME280;4807;48.024;11.726;2022-07-17T13:33:54;95653.69;;;27.53;40.35
9538;BME280;4807;48.024;11.726;2022-07-17T13:37:03;95665.31;;;27.57;39.69
9538;BME280;4807;48.024;11.726;2022-07-17T13:40:12;95664.63;;;27.49;39.59
9538;BME280;4807;48.024;11.726;2022-07-17T13:43:21;95663.09;;;27.68;39.03
9538;BME280;4807;48.024;11.726;2022-07-17T13:46:30;95666.69;;;27.65;40.89
9538;BME280;4807;48.024;11.726;2022-07-17T13:49:39;95666.47;;;27.36;39.23
9538;BME280;4807;48.024;11.726;2022-07-17T13:52:47;95666.50;;;27.52;40.61
9538;BME280;4807;48.024;11.726;2022-07-17T13:55:55;95661.84;;;27.53;39.08
9538;BME280;4807;48.024;11.726;2022-07-17T13:59:04;95673.38;;;27.21;39.56
9538;BME280;4807;48.024;11.726;2022-07-17T14:02:14;95673.78;;;27.39;39.81
9538;BME280;4807;48.024;11.726;2022-07-17T14:05:22;95663.75;;;27.56;38.82
9538;BME280;4807;48.024;11.726;2022-07-17T14:08:31;95669.31;;;27.49;38.18
9538;BME280;4807;48.024;11.726;2022-07-17T14:11:39;95672.16;;;27.22;38.04
9538;BME280;4807;48.024;11.726;2022-07-17T14:14:48;95665.78;;;27.09;38.98
9538;BME280;4807;48.024;11.726;2022-07-17T14:17:57;95668.75;;;27.18;38.50
9538;BME280;4807;48.024;11.726;2022-07-17T14:21:06;95661.09;;;27.09;38.78
9538;BME280;4807;48.024;11.726;2022-07-17T14:24:14;95659.66;;;27.24;39.08
9538;BME280;4807;48.024;11.726;2022-07-17T14:27:22;95662.88;;;27.39;37.73
9538;BME280;4807;48.024;11.726;2022-07-17T14:30:31;95653.88;;;27.42;38.50
9538;BME280;4807;48.024;11.726;2022-07-17T14:33:43;95656.25;;;27.40;37.71
9538;BME280;4807;48.024;11.726;2022-07-17T14:36:51;95653.13;;;26.99;37.26
9538;BME280;4807;48.024;11.726;2022-07-17T14:39:59;95657.75;;;27.02;38.20
9538;BME280;4807;48.024;11.726;2022-07-17T14:43:08;95661.38;;;27.15;38.75
9538;BME280;4807;48.024;11.726;2022-07-17T14:46:16;95659.88;;;27.14;37.62
9538;BME280;4807;48.024;11.726;2022-07-17T14:49:26;95652.56;;;27.07;38.02
9538;BME280;4807;48.024;11.726;2022-07-17T14:52:35;95652.03;;;27.16;38.71
9538;BME280;4807;48.024;11.726;2022-07-17T14:55:43;95657.22;;;27.30;36.62
9538;BME280;4807;48.024;11.726;2022-07-17T14:58:51;95657.34;;;27.23;36.78
9538;BME280;4807;48.024;11.726;2022-07-17T15:02:00;95661.19;;;27.25;36.38
9538;BME280;4807;48.024;11.726;2022-07-17T15:05:09;95653.94;;;27.19;36.36
9538;BME280;4807;48.024;11.726;2022-07-17T15:08:18;95661.31;;;26.99;36.55
9538;BME280;4807;48.024;11.726;2022-07-17T15:11:27;95658.16;;;27.00;38.94
9538;BME280;4807;48.024;11.726;2022-07-17T15:14:35;95649.94;;;27.04;38.33
9538;BME280;4807;48.024;11.726;2022-07-17T15:17:46;95663.44;;;27.11;39.34
9538;BME280;4807;48.024;11.726;2022-07-17T15:20:57;95655.47;;;27.20;38.88
9538;BME280;4807;48.024;11.726;2022-07-17T15:24:07;95654.34;;;27.17;38.09
9538;BME280;4807;48.024;11.726;2022-07-17T15:27:17;95659.44;;;27.15;36.71
9538;BME280;4807;48.024;11.726;2022-07-17T15:30:26;95654.97;;;27.05;37.02
9538;BME280;4807;48.024;11.726;2022-07-17T15:33:41;95647.59;;;27.02;37.43
9538;BME280;4807;48.024;11.726;2022-07-17T15:36:52;95660.06;;;27.03;37.48
9538;BME280;4807;48.024;11.726;2022-07-17T15:40:01;95656.91;;;27.05;36.17
9538;BME280;4807;48.024;11.726;2022-07-17T15:43:10;95649.06;;;27.07;37.07
9538;BME280;4807;48.024;11.726;2022-07-17T15:46:22;95649.97;;;27.00;36.58
9538;BME280;4807;48.024;11.726;2022-07-17T15:49:31;95649.69;;;26.94;35.72
9538;BME280;4807;48.024;11.726;2022-07-17T15:52:42;95648.38;;;26.79;35.68
9538;BME280;4807;48.024;11.726;2022-07-17T15:55:51;95647.44;;;26.89;35.45
9538;BME280;4807;48.024;11.726;2022-07-17T15:59:00;95649.34;;;26.92;35.46
9538;BME280;4807;48.024;11.726;2022-07-17T16:02:08;95663.19;;;27.02;35.96
9538;BME280;4807;48.024;11.726;2022-07-17T16:05:19;95652.56;;;27.07;36.52
9538;BME280;4807;48.024;11.726;2022-07-17T16:08:29;95648.03;;;27.01;36.30
9538;BME280;4807;48.024;11.726;2022-07-17T16:11:37;95657.50;;;26.92;36.41
9538;BME280;4807;48.024;11.726;2022-07-17T16:14:46;95649.78;;;26.87;35.98
9538;BME280;4807;48.024;11.726;2022-07-17T16:17:57;95662.91;;;26.96;37.47
9538;BME280;4807;48.024;11.726;2022-07-17T16:21:10;95655.78;;;26.79;37.14
9538;BME280;4807;48.024;11.726;2022-07-17T16:24:26;95655.31;;;26.84;37.64
9538;BME280;4807;48.024;11.726;2022-07-17T16:27:37;95651.72;;;26.67;36.80
9538;BME280;4807;48.024;11.726;2022-07-17T16:30:47;95656.75;;;26.69;36.78
9538;BME280;4807;48.024;11.726;2022-07-17T16:33:55;95654.06;;;26.65;36.10
9538;BME280;4807;48.024;11.726;2022-07-17T16:37:05;95643.06;;;26.72;37.28
9538;BME280;4807;48.024;11.726;2022-07-17T16:40:15;95645.66;;;26.79;37.55
9538;BME280;4807;48.024;11.726;2022-07-17T16:43:24;95642.50;;;26.81;38.05
9538;BME280;4807;48.024;11.726;2022-07-17T16:46:33;95641.47;;;26.98;37.77
9538;BME280;4807;48.024;11.726;2022-07-17T16:49:41;95637.34;;;27.29;36.76
9538;BME280;4807;48.024;11.726;2022-07-17T16:52:50;95634.44;;;28.48;35.35
9538;BME280;4807;48.024;11.726;2022-07-17T16:56:01;95633.28;;;32.13;32.21
9538;BME280;4807;48.024;11.726;2022-07-17T16:59:10;95633.75;;;35.20;29.28